Time;durP1;ratioP1;P1;durP2;ratioP2;P2;SDS_P1;SDS_P2;PMS_P1;PMS_P2;Temp;Humidity;BMP_temperature;BMP_pressure;BME280_temperature;BME280_humidity;BME280_pressure;Samples;Min_cycle;Max_cycle;Signal;HPM_P1;HPM_P2
2022/06/04 00:02:15;;;;;;;0.20;0.20;;;9.30;99.90;;;;;;5028870;28;20503;-85
2022/06/04 00:04:41;;;;;;;0.20;0.20;;;9.30;99.90;;;;;;5004537;28;20081;-85
2022/06/04 00:07:07;;;;;;;1.42;1.35;;;9.30;99.90;;;;;;5012138;28;20120;-84
2022/06/04 00:09:33;;;;;;;0.10;0.10;;;9.30;99.90;;;;;;4999377;28;20073;-85
2022/06/04 00:17:27;;;;;;;0.00;0.00;;;9.30;99.90;;;;;;5018846;28;20077;-84
2022/06/04 00:19:52;;;;;;;0.10;0.10;;;9.20;99.90;;;;;;4997094;28;20073;-83
2022/06/04 00:22:18;;;;;;;0.17;0.15;;;9.20;99.90;;;;;;5013942;28;20046;-83
2022/06/04 00:24:45;;;;;;;0.40;0.40;;;9.10;99.90;;;;;;4999952;28;20095;-84
2022/06/04 00:27:15;;;;;;;0.10;0.10;;;9.00;99.90;;;;;;5016162;28;20076;-84
2022/06/04 00:29:47;;;;;;;0.10;0.10;;;9.00;99.90;;;;;;5033482;28;20037;-83
2022/06/04 00:32:13;;;;;;;0.32;0.32;;;9.00;99.90;;;;;;5032516;28;20034;-83
2022/06/04 00:34:39;;;;;;;0.00;0.00;;;8.90;99.90;;;;;;5020703;28;20557;-83
2022/06/04 00:37:05;;;;;;;0.28;0.28;;;8.90;99.90;;;;;;5016296;28;20045;-85
2022/06/04 00:39:30;;;;;;;0.30;0.30;;;9.80;99.90;;;;;;5032594;28;20079;-85
2022/06/04 00:42:10;;;;;;;0.10;0.10;;;8.90;99.90;;;;;;5032832;28;20045;-85
2022/06/04 00:44:36;;;;;;;0.00;0.00;;;8.90;99.90;;;;;;5023771;28;20035;-84
2022/06/04 00:47:20;;;;;;;0.00;0.00;;;8.80;99.90;;;;;;5032505;28;20041;-84
2022/06/04 00:49:45;;;;;;;2.30;0.43;;;8.90;99.90;;;;;;5025597;28;20092;-84
2022/06/04 00:52:14;;;;;;;0.47;0.45;;;8.90;99.90;;;;;;5013036;28;20076;-85
2022/06/04 00:54:41;;;;;;;0.10;0.10;;;8.80;99.90;;;;;;4996204;28;20523;-86
2022/06/04 00:57:20;;;;;;;0.00;0.00;;;9.00;99.90;;;;;;4980504;28;20041;-86
2022/06/04 01:00:07;;;;;;;0.52;0.52;;;8.80;99.90;;;;;;5013157;28;20060;-86
2022/06/04 01:03:10;;;;;;;0.10;0.10;;;8.80;99.90;;;;;;5028863;28;20029;-86
2022/06/04 01:06:00;;;;;;;0.13;0.13;;;8.80;99.90;;;;;;5031995;28;20056;-86
2022/06/04 01:08:40;;;;;;;0.20;0.20;;;8.80;99.90;;;;;;5032162;28;20053;-86
2022/06/04 01:11:25;;;;;;;0.00;0.00;;;8.80;99.90;;;;;;5012479;28;20049;-85
2022/06/04 01:14:09;;;;;;;0.00;0.00;;;8.80;99.90;;;;;;5008646;28;20061;-84
2022/06/04 01:17:03;;;;;;;0.22;0.22;;;8.80;99.90;;;;;;5014067;28;20038;-84
2022/06/04 01:19:45;;;;;;;0.28;0.28;;;8.80;99.90;;;;;;5000624;28;20360;-84
2022/06/04 01:22:41;;;;;;;0.20;0.20;;;8.80;99.90;;;;;;5009572;28;20569;-84
2022/06/04 01:25:39;;;;;;;0.10;0.10;;;8.80;99.90;;;;;;5031256;28;20531;-84
2022/06/04 01:28:07;;;;;;;0.10;0.10;;;8.90;99.90;;;;;;4989025;28;20139;-83
2022/06/04 01:30:41;;;;;;;0.10;0.10;;;8.90;99.90;;;;;;5016011;28;20345;-83
2022/06/04 01:33:21;;;;;;;0.38;0.08;;;8.90;99.90;;;;;;5030474;28;20052;-84
2022/06/04 01:35:51;;;;;;;0.05;0.05;;;8.90;99.90;;;;;;5027257;28;20468;-83
2022/06/04 01:38:19;;;;;;;0.22;0.13;;;9.00;99.90;;;;;;5017983;28;20095;-83
2022/06/04 01:41:06;;;;;;;0.20;0.20;;;8.90;99.90;;;;;;5030397;28;20423;-83
2022/06/04 01:43:45;;;;;;;;;;;9.10;99.90;;;;;;5032419;28;20498;-86
2022/06/04 01:46:41;;;;;;;0.00;0.00;;;8.90;99.90;;;;;;5031818;28;20008;-86
2022/06/04 01:49:28;;;;;;;0.32;0.32;;;8.90;99.90;;;;;;5022915;28;20077;-85
2022/06/04 01:52:00;;;;;;;0.17;0.17;;;8.90;99.90;;;;;;5016093;28;20057;-85
2022/06/04 01:54:35;;;;;;;0.10;0.10;;;8.90;99.90;;;;;;5031909;28;20124;-86
2022/06/04 01:57:35;;;;;;;0.00;0.00;;;8.80;99.90;;;;;;5032236;28;20038;-86
2022/06/04 02:00:10;;;;;;;0.15;0.13;;;8.70;99.90;;;;;;5006090;28;20058;-83
2022/06/04 02:02:41;;;;;;;0.00;0.00;;;8.60;99.90;;;;;;5015501;28;20503;-83
2022/06/04 02:05:12;;;;;;;0.10;0.10;;;8.60;99.90;;;;;;4996065;28;20050;-82
2022/06/04 02:07:45;;;;;;;1.30;1.30;;;8.50;99.90;;;;;;5012500;28;20053;-83
2022/06/04 02:10:14;;;;;;;0.05;0.05;;;8.50;99.90;;;;;;5018009;28;20072;-82
2022/06/04 02:12:43;;;;;;;0.00;0.00;;;8.40;99.90;;;;;;5034551;28;20734;-82
2022/06/04 02:15:20;;;;;;;0.08;0.08;;;8.50;99.90;;;;;;5035532;28;20041;-82
2022/06/04 02:17:50;;;;;;;0.00;0.00;;;8.40;99.90;;;;;;5035115;28;20080;-82
2022/06/04 02:20:16;;;;;;;0.05;0.05;;;8.40;99.90;;;;;;5034979;28;20047;-82
2022/06/04 02:22:42;;;;;;;0.10;0.10;;;8.50;99.90;;;;;;5016765;28;20084;-82
2022/06/04 02:25:11;;;;;;;0.10;0.10;;;8.50;99.90;;;;;;5015233;28;20468;-82
2022/06/04 02:27:38;;;;;;;0.20;0.20;;;8.50;99.90;;;;;;5035045;28;20373;-82
2022/06/04 02:30:05;;;;;;;0.10;0.10;;;8.50;99.90;;;;;;5017177;28;20484;-82
2022/06/04 02:32:42;;;;;;;0.00;0.00;;;8.40;99.90;;;;;;5017345;28;20049;-83
2022/06/04 02:35:21;;;;;;;0.05;0.05;;;8.40;99.90;;;;;;5007856;28;20472;-84
2022/06/04 02:38:19;;;;;;;0.32;0.32;;;8.70;99.90;;;;;;5032564;28;20110;-84
2022/06/04 02:41:20;;;;;;;0.10;0.10;;;8.30;99.90;;;;;;4999203;28;20058;-84
2022/06/04 02:43:57;;;;;;;0.20;0.20;;;8.30;99.90;;;;;;5028915;28;20041;-84
2022/06/04 02:47:15;;;;;;;0.10;0.10;;;8.30;99.90;;;;;;5017978;28;20072;-84
2022/06/04 02:49:51;;;;;;;0.10;0.10;;;8.30;99.90;;;;;;5023561;28;20042;-85
2022/06/04 02:52:18;;;;;;;0.10;0.10;;;8.20;99.90;;;;;;5015202;28;20088;-85
2022/06/04 02:55:05;;;;;;;0.17;0.17;;;8.30;99.90;;;;;;5031548;28;20115;-86
2022/06/04 02:57:33;;;;;;;0.00;0.00;;;8.20;99.90;;;;;;5015358;28;20034;-86
2022/06/04 03:00:00;;;;;;;0.10;0.10;;;8.10;99.90;;;;;;5014877;28;20046;-86
2022/06/04 03:02:29;;;;;;;0.10;0.10;;;8.10;99.90;;;;;;5030344;28;20108;-85
2022/06/04 03:04:58;;;;;;;0.20;0.20;;;8.10;99.90;;;;;;5025997;28;20057;-86
2022/06/04 03:07:25;;;;;;;0.10;0.10;;;8.10;99.90;;;;;;5017181;28;20038;-84
2022/06/04 03:09:59;;;;;;;0.10;0.10;;;8.10;99.90;;;;;;5029403;28;20073;-84
2022/06/04 03:12:25;;;;;;;0.10;0.10;;;8.10;99.90;;;;;;5034405;28;20136;-84
2022/06/04 03:14:50;;;;;;;0.10;0.10;;;8.10;99.90;;;;;;5020080;28;20543;-84
2022/06/04 03:17:16;;;;;;;0.52;0.20;;;8.00;99.90;;;;;;5014387;28;20045;-84
2022/06/04 03:19:42;;;;;;;1.55;1.27;;;8.00;99.90;;;;;;5018913;28;20045;-84
2022/06/04 03:22:07;;;;;;;0.10;0.10;;;8.10;99.90;;;;;;5014388;28;20045;-83
2022/06/04 03:24:34;;;;;;;0.10;0.10;;;8.10;99.90;;;;;;5000219;28;20163;-82
2022/06/04 03:26:59;;;;;;;0.00;0.00;;;8.00;99.90;;;;;;5010950;28;20091;-83
2022/06/04 03:29:25;;;;;;;0.10;0.10;;;8.10;99.90;;;;;;5033941;28;20041;-83
2022/06/04 03:31:51;;;;;;;0.10;0.10;;;8.10;99.90;;;;;;5000942;28;20064;-83
2022/06/04 03:34:17;;;;;;;0.03;0.03;;;8.10;99.90;;;;;;5033483;28;20133;-83
2022/06/04 03:36:42;;;;;;;0.88;0.28;;;8.20;99.90;;;;;;5018387;28;20133;-83
2022/06/04 03:39:09;;;;;;;0.00;0.00;;;8.10;99.90;;;;;;5027584;28;20037;-84
2022/06/04 03:41:36;;;;;;;0.20;0.20;;;8.20;99.90;;;;;;5016234;28;20071;-84
2022/06/04 03:44:03;;;;;;;0.20;0.10;;;8.30;99.90;;;;;;5044065;28;20592;-84
2022/06/04 03:46:28;;;;;;;0.10;0.10;;;8.30;99.90;;;;;;5022330;28;20040;-84
2022/06/04 03:48:56;;;;;;;0.00;0.00;;;8.30;99.90;;;;;;5003862;28;20038;-84
2022/06/04 03:51:23;;;;;;;0.00;0.00;;;8.30;99.90;;;;;;5022911;28;20192;-84
2022/06/04 03:53:49;;;;;;;0.10;0.10;;;8.30;99.90;;;;;;5021905;28;20049;-84
2022/06/04 03:56:15;;;;;;;0.20;0.20;;;8.40;99.90;;;;;;5014384;28;20037;-84
2022/06/04 03:58:41;;;;;;;0.10;0.10;;;8.40;99.90;;;;;;5005237;28;20073;-84
2022/06/04 04:01:15;;;;;;;0.10;0.10;;;8.40;99.90;;;;;;5021967;28;20130;-84
2022/06/04 04:03:41;;;;;;;0.10;0.10;;;8.50;99.90;;;;;;5033605;28;20084;-84
2022/06/04 04:06:12;;;;;;;0.10;0.10;;;8.90;99.90;;;;;;5032999;28;20372;-84
2022/06/04 04:08:38;;;;;;;0.05;0.05;;;9.40;99.90;;;;;;5033346;28;20476;-84
2022/06/04 04:11:05;;;;;;;0.45;0.40;;;8.70;99.90;;;;;;4995525;28;20038;-84
2022/06/04 04:13:31;;;;;;;0.20;0.20;;;8.80;99.90;;;;;;5011570;28;20475;-85
2022/06/04 04:15:57;;;;;;;0.00;0.00;;;8.90;99.90;;;;;;5016476;28;20048;-86
2022/06/04 04:18:23;;;;;;;0.00;0.00;;;8.90;99.90;;;;;;5033413;28;20033;-86
2022/06/04 04:20:48;;;;;;;1.55;0.52;;;8.90;99.90;;;;;;5021471;28;20045;-86
2022/06/04 04:23:14;;;;;;;2.25;0.73;;;9.00;99.90;;;;;;5001974;28;20038;-85
2022/06/04 04:25:40;;;;;;;0.05;0.05;;;9.10;99.90;;;;;;5016918;28;20037;-85
2022/06/04 04:28:07;;;;;;;0.20;0.20;;;9.10;99.90;;;;;;5016528;28;20071;-85
2022/06/04 04:30:35;;;;;;;0.17;0.17;;;9.30;99.90;;;;;;5032929;28;20060;-85
2022/06/04 04:33:02;;;;;;;0.10;0.10;;;9.20;99.90;;;;;;5032361;28;20128;-85
2022/06/04 04:35:30;;;;;;;0.10;0.10;;;9.40;99.90;;;;;;5030672;28;20042;-85
2022/06/04 04:37:56;;;;;;;0.10;0.10;;;9.30;99.90;;;;;;4996522;28;20053;-87
2022/06/04 04:40:24;;;;;;;0.47;0.38;;;9.40;99.90;;;;;;4996368;28;20053;-85
2022/06/04 04:42:51;;;;;;;0.00;0.00;;;9.40;99.90;;;;;;5012861;28;20046;-86
2022/06/04 04:45:19;;;;;;;0.05;0.05;;;9.50;99.90;;;;;;4997091;28;20081;-86
2022/06/04 04:47:46;;;;;;;0.30;0.30;;;9.60;99.90;;;;;;5013087;28;20483;-83
2022/06/04 04:50:16;;;;;;;0.00;0.00;;;9.70;99.90;;;;;;5011939;28;20125;-83
2022/06/04 04:52:45;;;;;;;0.45;0.35;;;9.80;99.90;;;;;;5032302;28;20404;-83
2022/06/04 04:55:11;;;;;;;0.43;0.43;;;9.90;99.90;;;;;;5032368;28;20491;-83
2022/06/04 04:57:37;;;;;;;0.15;0.15;;;10.00;99.90;;;;;;5000285;28;20045;-83
2022/06/04 05:00:04;;;;;;;0.10;0.10;;;10.10;99.90;;;;;;5032011;28;20349;-83
2022/06/04 05:02:30;;;;;;;0.10;0.10;;;10.20;99.90;;;;;;5015969;28;20037;-86
2022/06/04 05:04:56;;;;;;;0.10;0.10;;;10.30;99.90;;;;;;5016068;28;20145;-86
2022/06/04 05:07:22;;;;;;;2.50;1.40;;;10.40;99.90;;;;;;5016141;28;20050;-86
2022/06/04 05:09:48;;;;;;;0.68;0.68;;;10.50;99.90;;;;;;5016066;28;20033;-86
2022/06/04 05:12:13;;;;;;;0.15;0.15;;;10.70;99.90;;;;;;5015468;28;20042;-86
2022/06/04 05:14:39;;;;;;;0.10;0.10;;;10.80;99.90;;;;;;5032685;28;20132;-86
2022/06/04 05:17:05;;;;;;;0.00;0.00;;;;;;;;;;5032588;28;20077;-86
2022/06/04 05:19:31;;;;;;;0.20;0.20;;;11.10;99.90;;;;;;5032279;28;20076;-85
2022/06/04 05:21:57;;;;;;;0.28;0.20;;;11.30;99.90;;;;;;5032089;28;20072;-85
2022/06/04 05:24:25;;;;;;;0.10;0.10;;;11.80;99.90;;;;;;5031786;28;20041;-85
2022/06/04 05:26:52;;;;;;;0.00;0.00;;;;;;;;;;5032459;28;20042;-85
2022/06/04 05:29:18;;;;;;;0.10;0.10;;;14.10;99.90;;;;;;5032425;28;20033;-85
2022/06/04 05:31:45;;;;;;;0.20;0.20;;;16.30;99.90;;;;;;5032243;28;20476;-85
2022/06/04 05:34:13;;;;;;;0.40;0.40;;;16.30;99.90;;;;;;5032589;28;20045;-85
2022/06/04 05:36:39;;;;;;;0.32;0.32;;;18.00;99.90;;;;;;5015017;28;20510;-84
2022/06/04 05:39:06;;;;;;;0.22;0.22;;;;;;;;;;5032014;28;20052;-85
2022/06/04 05:41:33;;;;;;;0.10;0.10;;;18.90;99.90;;;;;;5032102;28;20057;-84
2022/06/04 05:43:59;;;;;;;0.10;0.10;;;19.20;99.90;;;;;;5016477;28;20041;-87
2022/06/04 05:46:25;;;;;;;0.10;0.10;;;19.40;99.90;;;;;;5035813;28;20037;-85
2022/06/04 05:48:51;;;;;;;0.10;0.10;;;19.50;99.90;;;;;;5027583;28;20064;-85
2022/06/04 05:51:21;;;;;;;0.10;0.10;;;19.40;99.90;;;;;;5007783;28;20045;-82
2022/06/04 05:53:48;;;;;;;0.10;0.10;;;19.30;99.90;;;;;;5007976;28;20038;-85
2022/06/04 05:56:19;;;;;;;0.10;0.10;;;19.30;99.90;;;;;;5023862;28;20095;-85
2022/06/04 05:58:50;;;;;;;0.63;0.63;;;19.50;99.90;;;;;;5035274;28;20034;-85
2022/06/04 06:01:18;;;;;;;0.00;0.00;;;20.50;99.90;;;;;;5019102;28;20571;-85
2022/06/04 06:03:45;;;;;;;0.10;0.10;;;;;;;;;;5018947;28;20041;-85
2022/06/04 06:06:17;;;;;;;0.40;0.20;;;21.00;99.90;;;;;;5034965;28;20085;-85
2022/06/04 06:08:44;;;;;;;0.28;0.22;;;20.90;99.90;;;;;;5017948;28;20049;-83
2022/06/04 06:11:12;;;;;;;0.00;0.00;;;21.30;99.70;;;;;;5018060;28;20091;-83
2022/06/04 06:13:38;;;;;;;0.52;0.20;;;21.70;99.10;;;;;;5002885;28;20033;-84
2022/06/04 06:16:06;;;;;;;0.17;0.17;;;21.80;98.90;;;;;;5002352;28;20052;-84
2022/06/04 06:18:33;;;;;;;0.13;0.13;;;;;;;;;;5019263;28;20033;-84
2022/06/04 06:20:59;;;;;;;0.30;0.25;;;21.00;99.20;;;;;;5018291;28;20029;-84
2022/06/04 06:23:25;;;;;;;0.30;0.30;;;20.40;99.90;;;;;;4988748;28;20389;-84
2022/06/04 06:25:50;;;;;;;0.05;0.05;;;20.80;99.80;;;;;;5001175;28;20038;-83
2022/06/04 06:28:16;;;;;;;0.00;0.00;;;21.40;99.60;;;;;;5018577;28;20076;-83
2022/06/04 06:30:42;;;;;;;0.00;0.00;;;22.80;98.30;;;;;;5026671;28;20041;-82
2022/06/04 06:33:08;;;;;;;2.50;0.70;;;23.10;96.30;;;;;;5016824;28;20506;-82
2022/06/04 06:35:34;;;;;;;0.28;0.20;;;23.90;94.50;;;;;;5012925;28;20128;-82
2022/06/04 06:38:00;;;;;;;0.22;0.10;;;24.20;93.90;;;;;;5033226;28;20500;-83
2022/06/04 06:40:25;;;;;;;0.10;0.10;;;23.70;94.20;;;;;;5014952;28;20423;-83
2022/06/04 06:42:51;;;;;;;0.10;0.10;;;23.30;93.00;;;;;;5015297;28;20045;-83
2022/06/04 06:45:17;;;;;;;0.52;0.15;;;22.70;94.00;;;;;;5029237;28;20045;-83
2022/06/04 06:47:44;;;;;;;2.35;0.45;;;22.00;94.30;;;;;;5026394;28;20043;-85
2022/06/04 06:50:12;;;;;;;0.20;0.20;;;20.30;96.50;;;;;;5018294;28;20087;-84
2022/06/04 06:52:38;;;;;;;0.13;0.13;;;19.70;98.30;;;;;;5033626;28;20124;-84
2022/06/04 06:55:04;;;;;;;0.10;0.10;;;19.60;98.50;;;;;;5017445;28;20148;-85
2022/06/04 06:57:29;;;;;;;0.17;0.10;;;19.50;99.60;;;;;;5035340;28;20045;-84
2022/06/04 06:59:56;;;;;;;0.52;0.47;;;19.60;99.90;;;;;;5018135;28;20041;-87
2022/06/04 07:02:22;;;;;;;0.00;0.00;;;19.90;99.90;;;;;;5019469;28;20549;-85
2022/06/04 07:04:48;;;;;;;0.10;0.10;;;19.90;99.30;;;;;;5032308;28;20050;-85
2022/06/04 07:07:13;;;;;;;0.22;0.22;;;20.50;99.70;;;;;;5017301;28;20095;-89
2022/06/04 07:09:41;;;;;;;0.00;0.00;;;20.90;99.90;;;;;;5001408;28;20033;-86
2022/06/04 07:12:09;;;;;;;0.00;0.00;;;21.20;97.30;;;;;;5017731;28;20056;-85
2022/06/04 07:14:35;;;;;;;0.20;0.20;;;21.10;98.00;;;;;;5033636;28;20538;-86
2022/06/04 07:17:03;;;;;;;0.00;0.00;;;21.30;96.90;;;;;;5016765;28;20451;-84
2022/06/04 07:19:29;;;;;;;0.28;0.28;;;21.90;97.50;;;;;;5018256;28;20052;-84
2022/06/04 07:21:55;;;;;;;0.20;0.20;;;22.90;95.90;;;;;;5001199;28;20407;-84
2022/06/04 07:24:21;;;;;;;0.08;0.08;;;24.00;94.10;;;;;;5017896;28;20044;-85
2022/06/04 07:26:47;;;;;;;0.10;0.10;;;24.50;93.60;;;;;;5016091;28;20041;-84
2022/06/04 07:29:13;;;;;;;0.30;0.25;;;24.70;91.80;;;;;;5033919;28;20079;-84
2022/06/04 07:31:40;;;;;;;0.00;0.00;;;25.10;92.10;;;;;;5017362;28;20044;-84
2022/06/04 07:34:06;;;;;;;1.38;0.38;;;25.70;89.20;;;;;;5017725;28;20053;-85
2022/06/04 07:36:34;;;;;;;0.17;0.17;;;;;;;;;;4999993;28;20450;-85
2022/06/04 07:39:01;;;;;;;0.35;0.32;;;26.80;88.70;;;;;;5006625;28;20091;-85
2022/06/04 07:41:35;;;;;;;0.30;0.30;;;27.00;87.10;;;;;;5032623;28;20057;-85
2022/06/04 07:44:01;;;;;;;0.10;0.10;;;27.10;84.20;;;;;;5014329;28;20120;-86
2022/06/04 07:46:30;;;;;;;0.00;0.00;;;27.30;82.10;;;;;;4998517;28;20038;-87
2022/06/04 07:48:57;;;;;;;0.38;0.38;;;27.50;79.70;;;;;;4997433;28;20088;-86
2022/06/04 07:51:23;;;;;;;0.00;0.00;;;28.00;77.80;;;;;;5011868;28;20507;-84
2022/06/04 07:53:49;;;;;;;0.38;0.38;;;28.00;77.50;;;;;;5033536;28;20033;-84
2022/06/04 07:56:17;;;;;;;0.25;0.25;;;28.00;77.80;;;;;;5010745;28;20549;-83
2022/06/04 07:58:43;;;;;;;0.30;0.20;;;27.60;75.70;;;;;;5033169;28;20041;-83
2022/06/04 08:01:15;;;;;;;0.10;0.10;;;27.20;78.00;;;;;;5033230;28;20079;-83
2022/06/04 08:03:43;;;;;;;0.10;0.10;;;27.20;77.90;;;;;;5033291;28;20379;-82
2022/06/04 08:06:10;;;;;;;0.10;0.10;;;27.20;74.80;;;;;;5022990;28;20049;-83
2022/06/04 08:08:36;;;;;;;0.10;0.10;;;26.70;78.00;;;;;;5013299;28;20041;-86
2022/06/04 08:11:30;;;;;;;0.20;0.20;;;25.80;78.60;;;;;;5031547;28;20514;-83
2022/06/04 08:13:50;;;;;;;0.10;0.10;;;25.50;79.60;;;;;;5029007;28;20104;-83
2022/06/04 08:16:16;;;;;;;0.20;0.20;;;25.70;80.80;;;;;;5002514;28;20038;-84
2022/06/04 08:18:42;;;;;;;0.52;0.52;;;26.40;80.90;;;;;;5019388;28;20125;-84
2022/06/04 08:21:08;;;;;;;0.20;0.20;;;27.10;77.70;;;;;;5014560;22;20107;-90
2022/06/04 08:23:34;;;;;;;0.47;0.45;;;27.50;77.50;;;;;;4997731;28;20509;-87
2022/06/04 08:26:00;;;;;;;0.10;0.10;;;27.40;76.20;;;;;;4996697;28;20038;-91
2022/06/04 08:28:26;;;;;;;0.45;0.45;;;27.10;75.50;;;;;;5013045;28;20046;-91
2022/06/04 08:31:08;;;;;;;0.20;0.20;;;27.00;75.20;;;;;;4996424;28;20404;-86
2022/06/04 08:33:36;;;;;;;0.20;0.20;;;26.60;78.70;;;;;;5013364;28;20041;-90
2022/06/04 08:36:02;;;;;;;0.17;0.17;;;26.00;78.10;;;;;;5012849;28;20124;-91
2022/06/04 08:38:28;;;;;;;0.30;0.30;;;25.40;77.40;;;;;;4996573;28;20092;-92
2022/06/04 08:40:56;;;;;;;0.40;0.40;;;;;;;;;;4978667;28;20378;-89
2022/06/04 08:43:33;;;;;;;0.03;0.03;;;24.60;79.20;;;;;;4976935;28;20126;-88
2022/06/04 08:46:09;;;;;;;0.10;0.10;;;24.90;82.10;;;;;;4997858;28;20092;-86
2022/06/04 08:48:37;;;;;;;0.10;0.10;;;25.80;81.50;;;;;;5013696;28;20045;-88
2022/06/04 08:51:13;;;;;;;0.10;0.10;;;26.60;77.90;;;;;;4980472;28;20377;-91
2022/06/04 08:53:39;;;;;;;0.08;0.08;;;26.80;78.20;;;;;;4994045;28;20053;-91
2022/06/04 08:59:10;;;;;;;0.20;0.20;;;27.50;78.50;;;;;;5012344;28;20448;-85
2022/06/04 09:01:40;;;;;;;0.38;0.30;;;27.80;77.80;;;;;;4995595;28;20033;-86
2022/06/04 09:04:11;;;;;;;0.00;0.00;;;28.40;75.40;;;;;;4996549;28;20042;-82
2022/06/04 09:06:52;;;;;;;0.75;0.47;;;28.80;75.90;;;;;;4996358;28;20046;-83
2022/06/04 09:09:25;;;;;;;0.10;0.10;;;29.00;73.40;;;;;;5012918;28;20038;-84
2022/06/04 09:12:03;;;;;;;0.20;0.20;;;29.70;75.50;;;;;;5012917;28;20488;-84
2022/06/04 09:14:41;;;;;;;0.20;0.20;;;30.30;73.50;;;;;;5012433;28;20108;-85
2022/06/04 09:17:28;;;;;;;0.10;0.10;;;31.40;70.40;;;;;;4996750;28;20045;-86
2022/06/04 09:19:57;;;;;;;0.10;0.10;;;31.70;70.60;;;;;;5016306;28;20049;-86
2022/06/04 09:22:32;;;;;;;0.30;0.28;;;32.40;69.00;;;;;;5014202;28;20034;-87
2022/06/04 09:24:58;;;;;;;0.35;0.30;;;;;;;;;;4989400;28;20034;-86
2022/06/04 09:27:37;;;;;;;0.20;0.20;;;32.60;67.60;;;;;;4996732;28;20129;-86
2022/06/04 09:30:16;;;;;;;0.10;0.10;;;31.50;65.70;;;;;;4998095;28;20042;-92
2022/06/04 09:33:30;;;;;;;0.10;0.10;;;30.60;67.80;;;;;;5000048;28;20041;-90
2022/06/04 09:35:56;;;;;;;0.03;0.03;;;30.90;68.80;;;;;;5014830;28;20058;-86
2022/06/04 09:38:29;;;;;;;0.00;0.00;;;31.30;67.60;;;;;;5016915;28;20084;-93
2022/06/04 09:41:00;;;;;;;0.00;0.00;;;31.30;65.50;;;;;;4981063;28;20038;-93
2022/06/04 09:43:26;;;;;;;0.08;0.08;;;31.40;66.90;;;;;;5000275;28;20042;-92
2022/06/04 09:45:55;;;;;;;0.68;0.30;;;31.70;64.00;;;;;;4984233;28;20041;-92
2022/06/04 09:48:25;;;;;;;0.10;0.10;;;31.50;64.70;;;;;;4999948;28;20033;-93
2022/06/04 09:50:55;;;;;;;1.02;0.70;;;31.50;66.10;;;;;;5000026;28;20081;-92
2022/06/04 09:53:26;;;;;;;0.10;0.10;;;31.50;63.40;;;;;;4997328;28;20117;-92
2022/06/04 09:56:08;;;;;;;0.15;0.15;;;31.20;65.50;;;;;;4999551;28;20395;-92
2022/06/04 09:58:40;;;;;;;1.67;0.25;;;30.90;65.40;;;;;;4999762;28;20551;-92
2022/06/04 10:01:14;;;;;;;0.20;0.20;;;30.70;65.60;;;;;;4996147;28;20107;-92
2022/06/04 10:03:40;;;;;;;0.10;0.10;;;30.60;64.40;;;;;;4997518;28;20365;-85
2022/06/04 10:06:11;;;;;;;0.13;0.13;;;30.40;65.30;;;;;;5010979;28;20590;-85
2022/06/04 10:11:34;;;;;;;;;;;30.40;67.40;;;;;;5014050;28;20373;-85
2022/06/04 10:14:00;;;;;;;;;;;31.00;65.90;;;;;;5015622;28;19925;-85
2022/06/04 10:16:27;;;;;;;0.05;0.05;;;31.10;65.40;;;;;;4998041;28;20000;-85
2022/06/04 10:19:12;;;;;;;0.15;0.15;;;31.30;66.80;;;;;;4999136;28;20049;-92
2022/06/04 10:21:41;;;;;;;0.17;0.17;;;31.10;62.60;;;;;;5015647;28;20124;-85
2022/06/04 10:24:23;;;;;;;0.35;0.35;;;31.10;65.50;;;;;;4998951;28;20096;-85
2022/06/04 10:26:58;;;;;;;0.00;0.00;;;31.40;66.00;;;;;;4998350;28;20108;-85
2022/06/04 10:29:44;;;;;;;0.10;0.10;;;31.80;66.00;;;;;;4998174;28;20044;-86
2022/06/04 10:32:47;;;;;;;0.63;0.55;;;32.30;64.90;;;;;;5015622;28;20468;-84
2022/06/04 10:36:14;;;;;;;0.32;0.25;;;32.60;63.30;;;;;;5015861;28;20139;-83
2022/06/04 10:38:51;;;;;;;0.10;0.10;;;32.70;62.90;;;;;;4964540;28;20141;-84
2022/06/04 10:41:26;;;;;;;0.20;0.10;;;32.60;61.20;;;;;;4961891;28;20050;-85
2022/06/04 10:44:07;;;;;;;0.30;0.30;;;32.50;60.60;;;;;;5005923;28;20719;-86
2022/06/04 10:46:54;;;;;;;0.10;0.10;;;32.40;59.40;;;;;;4998005;28;20037;-84
2022/06/04 10:49:31;;;;;;;0.00;0.00;;;32.10;61.90;;;;;;5011822;28;20034;-85
2022/06/04 10:52:15;;;;;;;0.10;0.10;;;32.20;62.50;;;;;;4978984;28;20128;-86
2022/06/04 10:54:49;;;;;;;0.47;0.25;;;32.20;61.60;;;;;;4999146;28;20073;-85
2022/06/04 10:57:27;;;;;;;0.08;0.08;;;31.90;62.60;;;;;;4998965;28;20042;-87
2022/06/04 10:59:56;;;;;;;0.05;0.05;;;31.30;61.60;;;;;;5008858;28;20042;-86
2022/06/04 11:02:48;;;;;;;0.43;0.43;;;30.90;63.30;;;;;;4998195;28;20459;-86
2022/06/04 11:05:50;;;;;;;0.10;0.10;;;30.70;61.50;;;;;;4986787;28;20054;-88
2022/06/04 11:08:21;;;;;;;0.10;0.10;;;30.70;63.10;;;;;;4981994;28;20042;-89
2022/06/04 11:11:01;;;;;;;0.10;0.10;;;30.90;63.40;;;;;;5010801;28;20042;-87
2022/06/04 11:13:36;;;;;;;0.15;0.10;;;31.00;62.30;;;;;;5012847;28;20053;-85
2022/06/04 11:16:12;;;;;;;0.20;0.20;;;31.00;62.60;;;;;;4995690;28;20061;-88
2022/06/04 11:19:10;;;;;;;0.17;0.10;;;30.90;62.90;;;;;;4990033;28;20130;-87
2022/06/04 11:21:47;;;;;;;0.45;0.45;;;30.50;62.60;;;;;;5004213;28;20049;-88
2022/06/04 11:24:16;;;;;;;0.05;0.05;;;29.80;64.00;;;;;;4993459;28;20034;-88
2022/06/04 11:27:07;;;;;;;0.00;0.00;;;29.20;64.10;;;;;;4991309;28;20053;-95
2022/06/04 11:29:36;;;;;;;0.10;0.10;;;29.00;65.70;;;;;;4998841;28;20523;-95
2022/06/04 11:32:17;;;;;;;0.10;0.10;;;29.10;65.50;;;;;;4997929;28;20565;-95
2022/06/04 11:34:55;;;;;;;0.17;0.17;;;29.60;64.30;;;;;;5015585;28;20042;-94
2022/06/04 11:37:26;;;;;;;0.10;0.10;;;30.00;64.80;;;;;;5015935;28;20496;-95
2022/06/04 11:39:58;;;;;;;0.17;0.17;;;30.10;64.90;;;;;;4987551;28;20459;-95
2022/06/04 11:42:30;;;;;;;0.20;0.20;;;29.90;63.50;;;;;;4993494;28;20042;-87
2022/06/04 11:45:16;;;;;;;0.25;0.25;;;29.70;64.60;;;;;;4994218;28;20038;-87
2022/06/04 11:48:10;;;;;;;0.30;0.30;;;30.00;64.30;;;;;;5008905;28;20073;-89
2022/06/04 11:51:14;;;;;;;0.17;0.17;;;29.90;63.30;;;;;;5012736;28;20580;-87
2022/06/04 11:53:48;;;;;;;0.15;0.15;;;29.50;63.10;;;;;;4980565;28;20038;-86
2022/06/04 11:56:24;;;;;;;0.10;0.10;;;28.90;62.40;;;;;;4994100;28;20042;-87
2022/06/04 11:58:53;;;;;;;0.55;0.20;;;28.80;65.30;;;;;;5009714;28;20052;-96
2022/06/04 12:01:36;;;;;;;0.20;0.20;;;29.00;64.00;;;;;;5021834;28;20073;-96
2022/06/04 12:04:21;;;;;;;0.45;0.45;;;28.90;65.20;;;;;;5001224;28;20046;-93
2022/06/04 12:06:55;;;;;;;0.20;0.20;;;29.10;64.80;;;;;;4986772;28;20064;-93
2022/06/04 12:09:23;;;;;;;0.20;0.20;;;29.40;65.50;;;;;;4960199;28;20474;-95
2022/06/04 12:11:58;;;;;;;0.10;0.10;;;29.50;66.20;;;;;;4962390;28;20660;-95
2022/06/04 12:14:35;;;;;;;0.17;0.17;;;29.60;64.00;;;;;;4977257;28;20038;-95
2022/06/04 12:17:22;;;;;;;0.20;0.20;;;29.50;64.50;;;;;;4968054;28;20129;-87
2022/06/04 12:25:42;;;;;;;0.15;0.15;;;29.20;64.30;;;;;;4975000;28;20074;-91
2022/06/04 12:28:30;;;;;;;0.38;0.25;;;28.60;64.20;;;;;;4959886;28;20043;-91
2022/06/04 12:31:00;;;;;;;0.73;0.73;;;28.40;64.60;;;;;;4965711;28;20397;-93
2022/06/04 12:33:33;;;;;;;0.30;0.30;;;28.40;67.50;;;;;;4961114;28;20077;-87
2022/06/04 12:36:04;;;;;;;0.10;0.10;;;28.60;66.50;;;;;;4991104;28;20696;-88
2022/06/04 12:38:34;;;;;;;0.10;0.10;;;28.70;63.50;;;;;;4975451;28;20053;-89
2022/06/04 12:41:20;;;;;;;0.10;0.10;;;28.50;64.80;;;;;;4967546;28;20488;-87
2022/06/04 12:44:04;;;;;;;0.10;0.10;;;28.50;66.10;;;;;;4988626;28;20051;-88
2022/06/04 12:46:33;;;;;;;0.13;0.13;;;28.70;64.70;;;;;;4983788;28;20038;-90
2022/06/04 12:49:30;;;;;;;0.10;0.10;;;29.00;64.50;;;;;;4973107;28;20069;-91
2022/06/04 12:52:25;;;;;;;0.65;0.45;;;28.50;64.80;;;;;;4974116;28;20400;-95
2022/06/04 12:55:07;;;;;;;0.10;0.10;;;28.30;64.60;;;;;;4988190;28;20097;-93
2022/06/04 12:57:48;;;;;;;0.13;0.13;;;28.30;64.90;;;;;;4974867;28;20074;-92
2022/06/04 13:00:13;;;;;;;0.08;0.08;;;28.50;65.00;;;;;;4974320;28;20050;-92
2022/06/04 13:02:43;;;;;;;0.20;0.20;;;28.40;65.20;;;;;;4977863;28;20042;-93
2022/06/04 13:05:19;;;;;;;0.10;0.10;;;28.40;63.80;;;;;;4946048;28;20043;-93
2022/06/04 13:08:27;;;;;;;5.90;0.40;;;28.30;63.20;;;;;;4993430;28;20042;-94
2022/06/04 13:11:47;;;;;;;0.38;0.35;;;28.20;66.70;;;;;;4966315;28;20047;-94
2022/06/04 13:14:44;;;;;;;0.20;0.20;;;27.90;66.70;;;;;;4923557;28;20074;-94
2022/06/04 13:17:17;;;;;;;0.15;0.15;;;28.10;64.30;;;;;;4976161;28;20113;-96
2022/06/04 13:19:52;;;;;;;0.17;0.17;;;28.20;63.90;;;;;;4977363;28;20077;-94
2022/06/04 13:22:33;;;;;;;0.10;0.10;;;27.90;65.50;;;;;;4962429;28;20093;-94
2022/06/04 13:25:00;;;;;;;0.10;0.10;;;27.80;64.90;;;;;;4994558;28;20038;-94
2022/06/04 13:27:52;;;;;;;0.00;0.00;;;27.60;66.50;;;;;;4977314;28;20185;-95
2022/06/04 13:30:32;;;;;;;0.00;0.00;;;27.70;66.40;;;;;;4977913;28;20508;-92
2022/06/04 13:33:24;;;;;;;4.38;1.00;;;28.00;65.30;;;;;;4990234;28;20038;-88
2022/06/04 13:35:53;;;;;;;0.20;0.20;;;28.20;65.10;;;;;;4971893;28;20054;-91
2022/06/04 13:38:25;;;;;;;0.20;0.20;;;28.30;65.10;;;;;;4980159;28;20042;-93
2022/06/04 13:41:01;;;;;;;0.40;0.40;;;28.30;64.80;;;;;;4976119;28;20046;-87